sensor_id;sensor_type;location;lat;lon;timestamp;pressure;altitude;pressure_sealevel;temperature;humidity
64080;BME280;51042;49.696;10.808;2023-07-02T00:02:01;97662.13;;;17.28;100.00
64080;BME280;51042;49.696;10.808;2023-07-02T00:04:26;97661.56;;;17.18;100.00
64080;BME280;51042;49.696;10.808;2023-07-02T00:06:52;97670.34;;;17.11;100.00
64080;BME280;51042;49.696;10.808;2023-07-02T00:09:18;97664.78;;;17.05;100.00
64080;BME280;51042;49.696;10.808;2023-07-02T00:11:44;97662.00;;;17.05;100.00
64080;BME280;51042;49.696;10.808;2023-07-02T00:14:13;97661.00;;;17.03;100.00
64080;BME280;51042;49.696;10.808;2023-07-02T00:16:41;97661.94;;;16.94;100.00
64080;BME280;51042;49.696;10.808;2023-07-02T00:19:09;97671.00;;;16.89;100.00
64080;BME280;51042;49.696;10.808;2023-07-02T00:21:34;97667.44;;;16.83;100.00
64080;BME280;51042;49.696;10.808;2023-07-02T00:24:02;97674.19;;;16.77;100.00
64080;BME280;51042;49.696;10.808;2023-07-02T00:26:27;97671.38;;;16.71;100.00
64080;BME280;51042;49.696;10.808;2023-07-02T00:28:53;97665.53;;;16.63;100.00
64080;BME280;51042;49.696;10.808;2023-07-02T00:31:19;97667.00;;;16.59;100.00
64080;BME280;51042;49.696;10.808;2023-07-02T00:33:45;97670.00;;;16.55;100.00
64080;BME280;51042;49.696;10.808;2023-07-02T00:36:10;97674.22;;;16.51;100.00
64080;BME280;51042;49.696;10.808;2023-07-02T00:38:39;97673.69;;;16.47;100.00
64080;BME280;51042;49.696;10.808;2023-07-02T00:41:09;97689.03;;;16.42;100.00
64080;BME280;51042;49.696;10.808;2023-07-02T00:43:35;97677.91;;;16.37;100.00
64080;BME280;51042;49.696;10.808;2023-07-02T00:46:00;97683.44;;;16.37;100.00
64080;BME280;51042;49.696;10.808;2023-07-02T00:48:27;97674.38;;;16.36;100.00
64080;BME280;51042;49.696;10.808;2023-07-02T00:50:53;97672.69;;;16.44;100.00
64080;BME280;51042;49.696;10.808;2023-07-02T00:53:18;97674.50;;;16.53;100.00
64080;BME280;51042;49.696;10.808;2023-07-02T00:55:44;97674.09;;;16.60;100.00
64080;BME280;51042;49.696;10.808;2023-07-02T00:58:09;97678.41;;;16.66;100.00
64080;BME280;51042;49.696;10.808;2023-07-02T01:00:35;97680.72;;;16.73;100.00
64080;BME280;51042;49.696;10.808;2023-07-02T01:03:00;97691.56;;;16.77;100.00
64080;BME280;51042;49.696;10.808;2023-07-02T01:05:30;97699.41;;;16.79;100.00
64080;BME280;51042;49.696;10.808;2023-07-02T01:08:04;97690.81;;;16.77;100.00
64080;BME280;51042;49.696;10.808;2023-07-02T01:10:30;97693.56;;;16.71;100.00
64080;BME280;51042;49.696;10.808;2023-07-02T01:12:56;97693.56;;;16.71;100.00
64080;BME280;51042;49.696;10.808;2023-07-02T01:15:23;97701.38;;;16.72;100.00
64080;BME280;51042;49.696;10.808;2023-07-02T01:17:49;97692.34;;;16.78;100.00
64080;BME280;51042;49.696;10.808;2023-07-02T01:20:14;97697.16;;;16.83;100.00
64080;BME280;51042;49.696;10.808;2023-07-02T01:22:40;97688.13;;;16.88;100.00
64080;BME280;51042;49.696;10.808;2023-07-02T01:25:06;97698.47;;;16.93;100.00
64080;BME280;51042;49.696;10.808;2023-07-02T01:27:33;97691.91;;;16.90;100.00
64080;BME280;51042;49.696;10.808;2023-07-02T01:30:00;97694.38;;;16.83;100.00
64080;BME280;51042;49.696;10.808;2023-07-02T01:32:26;97697.84;;;16.72;100.00
64080;BME280;51042;49.696;10.808;2023-07-02T01:34:52;97695.25;;;16.63;100.00
64080;BME280;51042;49.696;10.808;2023-07-02T01:37:18;97699.97;;;16.57;100.00
64080;BME280;51042;49.696;10.808;2023-07-02T01:39:44;97707.22;;;16.49;100.00
64080;BME280;51042;49.696;10.808;2023-07-02T01:42:13;97701.88;;;16.45;100.00
64080;BME280;51042;49.696;10.808;2023-07-02T01:44:43;97712.72;;;16.43;100.00
64080;BME280;51042;49.696;10.808;2023-07-02T01:47:09;97703.84;;;16.39;100.00
64080;BME280;51042;49.696;10.808;2023-07-02T01:49:35;97706.09;;;16.35;100.00
64080;BME280;51042;49.696;10.808;2023-07-02T01:52:01;97709.09;;;16.31;100.00
64080;BME280;51042;49.696;10.808;2023-07-02T01:54:27;97713.31;;;16.27;100.00
64080;BME280;51042;49.696;10.808;2023-07-02T01:56:53;97713.53;;;16.23;100.00
64080;BME280;51042;49.696;10.808;2023-07-02T01:59:21;97713.00;;;16.19;100.00
64080;BME280;51042;49.696;10.808;2023-07-02T02:01:47;97710.44;;;16.16;100.00
64080;BME280;51042;49.696;10.808;2023-07-02T02:04:13;97714.44;;;16.15;100.00
64080;BME280;51042;49.696;10.808;2023-07-02T02:06:39;97726.03;;;16.13;100.00
64080;BME280;51042;49.696;10.808;2023-07-02T02:09:05;97732.28;;;16.08;100.00
64080;BME280;51042;49.696;10.808;2023-07-02T02:11:31;97733.25;;;16.05;100.00
64080;BME280;51042;49.696;10.808;2023-07-02T02:13:58;97730.94;;;16.04;100.00
64080;BME280;51042;49.696;10.808;2023-07-02T02:16:24;97718.59;;;15.99;100.00
64080;BME280;51042;49.696;10.808;2023-07-02T02:18:50;97724.59;;;15.98;100.00
64080;BME280;51042;49.696;10.808;2023-07-02T02:21:18;97726.84;;;15.93;100.00
64080;BME280;51042;49.696;10.808;2023-07-02T02:23:44;97721.28;;;15.93;100.00
64080;BME280;51042;49.696;10.808;2023-07-02T02:26:10;97720.25;;;15.91;100.00
64080;BME280;51042;49.696;10.808;2023-07-02T02:28:35;97723.03;;;15.91;100.00
64080;BME280;51042;49.696;10.808;2023-07-02T02:31:01;97723.78;;;15.91;100.00
64080;BME280;51042;49.696;10.808;2023-07-02T02:33:27;97722.78;;;15.89;100.00
64080;BME280;51042;49.696;10.808;2023-07-02T02:35:52;97730.50;;;15.85;100.00
64080;BME280;51042;49.696;10.808;2023-07-02T02:38:19;97723.66;;;15.80;100.00
64080;BME280;51042;49.696;10.808;2023-07-02T02:40:44;97730.19;;;15.77;100.00
64080;BME280;51042;49.696;10.808;2023-07-02T02:43:09;97724.84;;;15.74;100.00
64080;BME280;51042;49.696;10.808;2023-07-02T02:45:35;97722.59;;;15.72;100.00
64080;BME280;51042;49.696;10.808;2023-07-02T02:48:00;97730.59;;;15.70;100.00
64080;BME280;51042;49.696;10.808;2023-07-02T02:50:25;97736.34;;;15.67;100.00
64080;BME280;51042;49.696;10.808;2023-07-02T02:52:51;97733.03;;;15.63;100.00
64080;BME280;51042;49.696;10.808;2023-07-02T02:55:17;97738.00;;;15.59;100.00
64080;BME280;51042;49.696;10.808;2023-07-02T02:57:43;97736.72;;;15.54;100.00
64080;BME280;51042;49.696;10.808;2023-07-02T03:00:11;97734.72;;;15.55;100.00
64080;BME280;51042;49.696;10.808;2023-07-02T03:02:37;97743.94;;;15.51;100.00
64080;BME280;51042;49.696;10.808;2023-07-02T03:05:03;97739.63;;;15.50;100.00
64080;BME280;51042;49.696;10.808;2023-07-02T03:07:32;97739.63;;;15.50;100.00
64080;BME280;51042;49.696;10.808;2023-07-02T03:09:57;97740.63;;;15.47;100.00
64080;BME280;51042;49.696;10.808;2023-07-02T03:12:25;97737.28;;;15.43;100.00
64080;BME280;51042;49.696;10.808;2023-07-02T03:14:51;97741.25;;;15.37;100.00
64080;BME280;51042;49.696;10.808;2023-07-02T03:17:19;97742.94;;;15.34;100.00
64080;BME280;51042;49.696;10.808;2023-07-02T03:19:45;97750.41;;;15.28;100.00
64080;BME280;51042;49.696;10.808;2023-07-02T03:22:10;97755.19;;;15.28;100.00
64080;BME280;51042;49.696;10.808;2023-07-02T03:24:35;97761.19;;;15.26;100.00
64080;BME280;51042;49.696;10.808;2023-07-02T03:27:01;97759.69;;;15.25;100.00
64080;BME280;51042;49.696;10.808;2023-07-02T03:29:26;97755.41;;;15.24;100.00
64080;BME280;51042;49.696;10.808;2023-07-02T03:31:52;97749.09;;;15.24;100.00
64080;BME280;51042;49.696;10.808;2023-07-02T03:34:17;97747.09;;;15.24;100.00
64080;BME280;51042;49.696;10.808;2023-07-02T03:36:42;97752.88;;;15.26;100.00
64080;BME280;51042;49.696;10.808;2023-07-02T03:39:09;97750.69;;;15.30;100.00
64080;BME280;51042;49.696;10.808;2023-07-02T03:41:34;97754.78;;;15.35;100.00
64080;BME280;51042;49.696;10.808;2023-07-02T03:44:00;97766.59;;;15.35;100.00
64080;BME280;51042;49.696;10.808;2023-07-02T03:46:25;97763.84;;;15.35;100.00
64080;BME280;51042;49.696;10.808;2023-07-02T03:48:50;97764.09;;;15.37;100.00
64080;BME280;51042;49.696;10.808;2023-07-02T03:51:16;97770.19;;;15.41;100.00
64080;BME280;51042;49.696;10.808;2023-07-02T03:53:41;97768.38;;;15.53;100.00
64080;BME280;51042;49.696;10.808;2023-07-02T03:56:07;97772.94;;;15.76;100.00
64080;BME280;51042;49.696;10.808;2023-07-02T03:58:32;97771.88;;;15.94;100.00
64080;BME280;51042;49.696;10.808;2023-07-02T04:00:58;97775.28;;;16.09;100.00
64080;BME280;51042;49.696;10.808;2023-07-02T04:03:23;97775.44;;;16.20;100.00
64080;BME280;51042;49.696;10.808;2023-07-02T04:05:49;97775.50;;;16.26;100.00
64080;BME280;51042;49.696;10.808;2023-07-02T04:08:14;97783.28;;;16.27;100.00
64080;BME280;51042;49.696;10.808;2023-07-02T04:10:40;97787.75;;;16.19;100.00
64080;BME280;51042;49.696;10.808;2023-07-02T04:13:05;97795.56;;;16.21;100.00
64080;BME280;51042;49.696;10.808;2023-07-02T04:15:30;97800.41;;;16.26;100.00
64080;BME280;51042;49.696;10.808;2023-07-02T04:17:57;97806.72;;;16.26;100.00
64080;BME280;51042;49.696;10.808;2023-07-02T04:20:22;97802.53;;;16.37;100.00
64080;BME280;51042;49.696;10.808;2023-07-02T04:22:47;97802.34;;;16.46;100.00
64080;BME280;51042;49.696;10.808;2023-07-02T04:25:13;97800.91;;;16.50;100.00
64080;BME280;51042;49.696;10.808;2023-07-02T04:27:43;97804.22;;;16.54;100.00
64080;BME280;51042;49.696;10.808;2023-07-02T04:30:09;97805.44;;;16.53;100.00
64080;BME280;51042;49.696;10.808;2023-07-02T04:32:36;97806.75;;;16.58;100.00
64080;BME280;51042;49.696;10.808;2023-07-02T04:35:01;97804.91;;;16.49;100.00
64080;BME280;51042;49.696;10.808;2023-07-02T04:37:27;97819.53;;;16.50;100.00
64080;BME280;51042;49.696;10.808;2023-07-02T04:39:53;97807.59;;;16.64;100.00
64080;BME280;51042;49.696;10.808;2023-07-02T04:42:19;97820.53;;;18.59;99.26
64080;BME280;51042;49.696;10.808;2023-07-02T04:44:44;97805.47;;;21.43;75.95
64080;BME280;51042;49.696;10.808;2023-07-02T04:47:09;97824.22;;;23.49;65.62
64080;BME280;51042;49.696;10.808;2023-07-02T04:49:35;97813.94;;;25.60;57.90
64080;BME280;51042;49.696;10.808;2023-07-02T04:52:00;97824.03;;;26.20;54.16
64080;BME280;51042;49.696;10.808;2023-07-02T04:54:25;97827.34;;;26.11;54.27
64080;BME280;51042;49.696;10.808;2023-07-02T04:56:51;97829.81;;;26.15;53.95
64080;BME280;51042;49.696;10.808;2023-07-02T04:59:16;97831.91;;;23.88;58.97
64080;BME280;51042;49.696;10.808;2023-07-02T05:01:42;97824.53;;;21.64;65.78
64080;BME280;51042;49.696;10.808;2023-07-02T05:04:09;97844.69;;;19.98;71.10
64080;BME280;51042;49.696;10.808;2023-07-02T05:06:36;97842.53;;;19.13;76.35
64080;BME280;51042;49.696;10.808;2023-07-02T05:09:01;97838.72;;;18.71;79.71
64080;BME280;51042;49.696;10.808;2023-07-02T05:11:27;97830.31;;;18.44;80.90
64080;BME280;51042;49.696;10.808;2023-07-02T05:13:52;97827.78;;;18.29;81.46
64080;BME280;51042;49.696;10.808;2023-07-02T05:16:17;97836.13;;;18.40;81.81
64080;BME280;51042;49.696;10.808;2023-07-02T05:18:42;97848.50;;;18.33;81.56
64080;BME280;51042;49.696;10.808;2023-07-02T05:21:08;97843.91;;;18.25;81.96
64080;BME280;51042;49.696;10.808;2023-07-02T05:23:33;97842.16;;;18.22;81.92
64080;BME280;51042;49.696;10.808;2023-07-02T05:25:58;97844.19;;;18.27;82.52
64080;BME280;51042;49.696;10.808;2023-07-02T05:28:24;97850.78;;;18.35;81.36
64080;BME280;51042;49.696;10.808;2023-07-02T05:30:50;97850.53;;;18.44;81.88
64080;BME280;51042;49.696;10.808;2023-07-02T05:33:15;97856.59;;;18.43;79.26
64080;BME280;51042;49.696;10.808;2023-07-02T05:35:40;97852.34;;;18.53;79.49
64080;BME280;51042;49.696;10.808;2023-07-02T05:38:06;97852.28;;;18.42;77.69
64080;BME280;51042;49.696;10.808;2023-07-02T05:40:31;97853.63;;;18.57;77.48
64080;BME280;51042;49.696;10.808;2023-07-02T05:42:56;97844.53;;;18.68;76.03
64080;BME280;51042;49.696;10.808;2023-07-02T05:45:21;97849.28;;;18.45;74.85
64080;BME280;51042;49.696;10.808;2023-07-02T05:47:48;97861.34;;;18.31;73.42
64080;BME280;51042;49.696;10.808;2023-07-02T05:50:14;97844.66;;;18.20;69.89
64080;BME280;51042;49.696;10.808;2023-07-02T05:52:39;97855.69;;;18.03;70.04
64080;BME280;51042;49.696;10.808;2023-07-02T05:55:05;97850.63;;;19.50;67.86
64080;BME280;51042;49.696;10.808;2023-07-02T05:57:32;97857.72;;;21.97;57.54
64080;BME280;51042;49.696;10.808;2023-07-02T05:59:57;97854.34;;;22.60;54.73
64080;BME280;51042;49.696;10.808;2023-07-02T06:02:23;97859.22;;;21.20;57.43
64080;BME280;51042;49.696;10.808;2023-07-02T06:04:48;97868.78;;;19.84;62.36
64080;BME280;51042;49.696;10.808;2023-07-02T06:07:13;97865.31;;;19.34;65.34
64080;BME280;51042;49.696;10.808;2023-07-02T06:09:38;97875.63;;;18.77;68.05
64080;BME280;51042;49.696;10.808;2023-07-02T06:12:04;97870.22;;;18.35;71.02
64080;BME280;51042;49.696;10.808;2023-07-02T06:14:29;97874.72;;;18.21;74.03
64080;BME280;51042;49.696;10.808;2023-07-02T06:16:55;97875.47;;;18.16;75.32
64080;BME280;51042;49.696;10.808;2023-07-02T06:19:22;97889.78;;;18.04;72.33
64080;BME280;51042;49.696;10.808;2023-07-02T06:21:47;97890.41;;;18.41;72.15
64080;BME280;51042;49.696;10.808;2023-07-02T06:24:13;97888.41;;;20.25;64.08
64080;BME280;51042;49.696;10.808;2023-07-02T06:26:38;97884.66;;;22.19;56.69
64080;BME280;51042;49.696;10.808;2023-07-02T06:29:03;97882.47;;;23.95;50.15
64080;BME280;51042;49.696;10.808;2023-07-02T06:31:29;97878.38;;;23.83;49.93
64080;BME280;51042;49.696;10.808;2023-07-02T06:33:54;97892.50;;;24.44;48.67
64080;BME280;51042;49.696;10.808;2023-07-02T06:36:19;97878.78;;;22.60;50.79
64080;BME280;51042;49.696;10.808;2023-07-02T06:38:45;97876.22;;;21.16;53.51
64080;BME280;51042;49.696;10.808;2023-07-02T06:41:10;97877.25;;;20.25;54.75
64080;BME280;51042;49.696;10.808;2023-07-02T06:43:36;97876.94;;;19.66;57.22
64080;BME280;51042;49.696;10.808;2023-07-02T06:46:01;97883.78;;;20.39;56.60
64080;BME280;51042;49.696;10.808;2023-07-02T06:48:26;97880.88;;;22.35;51.25
64080;BME280;51042;49.696;10.808;2023-07-02T06:50:51;97887.06;;;23.22;49.32
64080;BME280;51042;49.696;10.808;2023-07-02T06:53:17;97894.28;;;23.30;49.28
64080;BME280;51042;49.696;10.808;2023-07-02T06:55:42;97889.81;;;22.90;49.80
64080;BME280;51042;49.696;10.808;2023-07-02T06:58:08;97886.41;;;21.73;53.41
64080;BME280;51042;49.696;10.808;2023-07-02T07:00:33;97893.66;;;21.28;54.59
64080;BME280;51042;49.696;10.808;2023-07-02T07:03:00;97895.31;;;21.06;57.09
64080;BME280;51042;49.696;10.808;2023-07-02T07:05:30;97906.03;;;20.50;57.71
64080;BME280;51042;49.696;10.808;2023-07-02T07:07:56;97894.84;;;20.56;57.46
64080;BME280;51042;49.696;10.808;2023-07-02T07:10:21;97889.59;;;20.88;56.71
64080;BME280;51042;49.696;10.808;2023-07-02T07:12:46;97884.31;;;20.43;57.20
64080;BME280;51042;49.696;10.808;2023-07-02T07:15:12;97898.34;;;20.04;58.78
64080;BME280;51042;49.696;10.808;2023-07-02T07:17:37;97897.63;;;19.92;59.25
64080;BME280;51042;49.696;10.808;2023-07-02T07:20:03;97896.81;;;20.03;58.79
64080;BME280;51042;49.696;10.808;2023-07-02T07:22:30;97891.66;;;20.41;57.34
64080;BME280;51042;49.696;10.808;2023-07-02T07:24:55;97888.09;;;20.87;55.77
64080;BME280;51042;49.696;10.808;2023-07-02T07:27:20;97889.19;;;21.13;54.80
64080;BME280;51042;49.696;10.808;2023-07-02T07:29:46;97898.09;;;20.71;56.35
64080;BME280;51042;49.696;10.808;2023-07-02T07:32:11;97895.22;;;20.82;56.09
64080;BME280;51042;49.696;10.808;2023-07-02T07:34:36;97889.75;;;20.65;56.05
64080;BME280;51042;49.696;10.808;2023-07-02T07:37:01;97908.63;;;20.43;56.26
64080;BME280;51042;49.696;10.808;2023-07-02T07:39:27;97901.22;;;20.51;56.23
64080;BME280;51042;49.696;10.808;2023-07-02T07:41:52;97890.16;;;20.34;57.30
64080;BME280;51042;49.696;10.808;2023-07-02T07:44:18;97907.75;;;20.01;58.14
64080;BME280;51042;49.696;10.808;2023-07-02T07:46:43;97915.56;;;20.03;58.48
64080;BME280;51042;49.696;10.808;2023-07-02T07:49:08;97910.00;;;19.97;57.84
64080;BME280;51042;49.696;10.808;2023-07-02T07:51:34;97913.28;;;20.12;57.92
64080;BME280;51042;49.696;10.808;2023-07-02T07:54:00;97909.19;;;20.24;56.91
64080;BME280;51042;49.696;10.808;2023-07-02T07:56:26;97908.22;;;20.11;57.16
64080;BME280;51042;49.696;10.808;2023-07-02T07:58:51;97898.25;;;20.26;57.33
64080;BME280;51042;49.696;10.808;2023-07-02T08:01:16;97911.47;;;20.20;56.66
64080;BME280;51042;49.696;10.808;2023-07-02T08:03:42;97913.56;;;19.92;57.90
64080;BME280;51042;49.696;10.808;2023-07-02T08:06:07;97902.19;;;19.84;58.11
64080;BME280;51042;49.696;10.808;2023-07-02T08:08:32;97901.13;;;20.10;58.61
64080;BME280;51042;49.696;10.808;2023-07-02T08:10:58;97908.75;;;20.67;55.98
64080;BME280;51042;49.696;10.808;2023-07-02T08:13:23;97897.16;;;21.34;54.34
64080;BME280;51042;49.696;10.808;2023-07-02T08:15:48;97908.75;;;21.73;52.41
64080;BME280;51042;49.696;10.808;2023-07-02T08:18:13;97891.16;;;21.54;52.60
64080;BME280;51042;49.696;10.808;2023-07-02T08:20:39;97908.16;;;21.56;52.92
64080;BME280;51042;49.696;10.808;2023-07-02T08:23:04;97903.88;;;21.49;53.30
64080;BME280;51042;49.696;10.808;2023-07-02T08:25:29;97898.88;;;21.42;53.99
64080;BME280;51042;49.696;10.808;2023-07-02T08:27:55;97903.47;;;21.64;53.34
64080;BME280;51042;49.696;10.808;2023-07-02T08:30:21;97900.00;;;21.82;53.07
64080;BME280;51042;49.696;10.808;2023-07-02T08:32:46;97897.22;;;21.82;52.55
64080;BME280;51042;49.696;10.808;2023-07-02T08:35:12;97905.78;;;21.90;52.80
64080;BME280;51042;49.696;10.808;2023-07-02T08:37:37;97904.03;;;21.63;53.15
64080;BME280;51042;49.696;10.808;2023-07-02T08:40:03;97913.13;;;21.69;53.42
64080;BME280;51042;49.696;10.808;2023-07-02T08:42:30;97904.09;;;21.51;53.52
64080;BME280;51042;49.696;10.808;2023-07-02T08:44:57;97903.44;;;21.70;53.41
64080;BME280;51042;49.696;10.808;2023-07-02T08:47:24;97902.56;;;22.10;52.46
64080;BME280;51042;49.696;10.808;2023-07-02T08:49:49;97911.91;;;22.13;51.47
64080;BME280;51042;49.696;10.808;2023-07-02T08:52:15;97911.56;;;22.22;51.51
64080;BME280;51042;49.696;10.808;2023-07-02T08:54:41;97896.53;;;22.25;51.86
64080;BME280;51042;49.696;10.808;2023-07-02T08:57:08;97914.94;;;22.15;52.06
64080;BME280;51042;49.696;10.808;2023-07-02T08:59:35;97906.31;;;22.13;52.77
64080;BME280;51042;49.696;10.808;2023-07-02T09:02:01;97912.81;;;22.45;51.99
64080;BME280;51042;49.696;10.808;2023-07-02T09:04:26;97910.44;;;22.49;52.14
64080;BME280;51042;49.696;10.808;2023-07-02T09:07:05;97918.88;;;23.05;51.17
64080;BME280;51042;49.696;10.808;2023-07-02T09:09:46;97917.81;;;23.40;49.46
64080;BME280;51042;49.696;10.808;2023-07-02T09:12:26;97927.41;;;23.45;48.91
64080;BME280;51042;49.696;10.808;2023-07-02T09:15:10;97940.25;;;23.22;49.45
64080;BME280;51042;49.696;10.808;2023-07-02T09:17:36;97927.69;;;23.28;50.51
64080;BME280;51042;49.696;10.808;2023-07-02T09:20:05;97932.63;;;23.54;49.93
64080;BME280;51042;49.696;10.808;2023-07-02T09:22:34;97928.19;;;23.77;48.76
64080;BME280;51042;49.696;10.808;2023-07-02T09:25:00;97927.88;;;23.30;48.83
64080;BME280;51042;49.696;10.808;2023-07-02T09:27:39;97932.66;;;23.35;48.31
64080;BME280;51042;49.696;10.808;2023-07-02T09:30:13;97932.06;;;23.87;48.03
64080;BME280;51042;49.696;10.808;2023-07-02T09:32:40;97916.88;;;24.49;47.38
64080;BME280;51042;49.696;10.808;2023-07-02T09:35:07;97916.91;;;24.35;46.37
64080;BME280;51042;49.696;10.808;2023-07-02T09:37:32;97924.00;;;24.10;47.33
64080;BME280;51042;49.696;10.808;2023-07-02T09:39:58;97916.44;;;24.05;46.73
64080;BME280;51042;49.696;10.808;2023-07-02T09:42:27;97925.59;;;23.92;47.17
64080;BME280;51042;49.696;10.808;2023-07-02T09:44:56;97923.94;;;23.84;46.60
64080;BME280;51042;49.696;10.808;2023-07-02T09:47:23;97924.50;;;23.69;48.13
64080;BME280;51042;49.696;10.808;2023-07-02T09:49:54;97933.00;;;23.90;48.34
64080;BME280;51042;49.696;10.808;2023-07-02T09:52:23;97927.88;;;23.94;47.54
64080;BME280;51042;49.696;10.808;2023-07-02T09:54:49;97937.59;;;23.29;49.11
64080;BME280;51042;49.696;10.808;2023-07-02T09:57:14;97925.69;;;22.91;51.00
64080;BME280;51042;49.696;10.808;2023-07-02T09:59:41;97943.19;;;22.54;51.90
64080;BME280;51042;49.696;10.808;2023-07-02T10:02:08;97948.25;;;22.13;53.11
64080;BME280;51042;49.696;10.808;2023-07-02T10:04:41;97947.28;;;22.10;53.33
64080;BME280;51042;49.696;10.808;2023-07-02T10:07:11;97940.06;;;22.39;52.21
64080;BME280;51042;49.696;10.808;2023-07-02T10:09:39;97942.47;;;22.72;51.35
64080;BME280;51042;49.696;10.808;2023-07-02T10:12:18;97935.72;;;22.62;51.28
64080;BME280;51042;49.696;10.808;2023-07-02T10:14:48;97940.03;;;23.19;49.93
64080;BME280;51042;49.696;10.808;2023-07-02T10:19:52;97949.13;;;23.57;48.62
64080;BME280;51042;49.696;10.808;2023-07-02T10:22:18;97935.25;;;23.14;49.49
64080;BME280;51042;49.696;10.808;2023-07-02T10:24:50;97932.56;;;22.90;49.75
64080;BME280;51042;49.696;10.808;2023-07-02T10:27:32;97949.00;;;22.99;49.31
64080;BME280;51042;49.696;10.808;2023-07-02T10:29:58;97953.47;;;23.72;47.99
64080;BME280;51042;49.696;10.808;2023-07-02T10:32:27;97950.88;;;24.19;46.89
64080;BME280;51042;49.696;10.808;2023-07-02T10:34:53;97946.47;;;24.36;46.05
64080;BME280;51042;49.696;10.808;2023-07-02T10:37:18;97942.13;;;24.22;45.53
64080;BME280;51042;49.696;10.808;2023-07-02T10:39:44;97946.31;;;24.16;45.06
64080;BME280;51042;49.696;10.808;2023-07-02T10:42:10;97948.69;;;24.12;45.06
64080;BME280;51042;49.696;10.808;2023-07-02T10:44:46;97952.22;;;23.99;44.98
64080;BME280;51042;49.696;10.808;2023-07-02T10:47:16;97950.00;;;23.34;46.70
64080;BME280;51042;49.696;10.808;2023-07-02T10:49:41;97959.25;;;23.29;47.51
64080;BME280;51042;49.696;10.808;2023-07-02T10:52:06;97967.91;;;23.44;46.81
64080;BME280;51042;49.696;10.808;2023-07-02T10:54:42;97955.94;;;23.62;46.24
64080;BME280;51042;49.696;10.808;2023-07-02T10:57:12;97965.19;;;24.15;46.00
64080;BME280;51042;49.696;10.808;2023-07-02T10:59:41;97962.75;;;23.80;45.77
64080;BME280;51042;49.696;10.808;2023-07-02T11:02:06;97956.25;;;23.58;46.53
64080;BME280;51042;49.696;10.808;2023-07-02T11:04:33;97955.84;;;24.39;45.12
64080;BME280;51042;49.696;10.808;2023-07-02T11:06:59;97952.25;;;24.25;45.72
64080;BME280;51042;49.696;10.808;2023-07-02T11:09:25;97949.66;;;24.01;45.43
64080;BME280;51042;49.696;10.808;2023-07-02T11:11:55;97956.31;;;23.98;45.06
64080;BME280;51042;49.696;10.808;2023-07-02T11:14:28;97954.50;;;24.00;44.88
64080;BME280;51042;49.696;10.808;2023-07-02T11:16:54;97958.97;;;24.35;44.03
64080;BME280;51042;49.696;10.808;2023-07-02T11:19:20;97955.94;;;24.60;44.07
64080;BME280;51042;49.696;10.808;2023-07-02T11:21:52;97953.06;;;25.33;42.71
64080;BME280;51042;49.696;10.808;2023-07-02T11:24:31;97954.34;;;25.66;41.63
64080;BME280;51042;49.696;10.808;2023-07-02T11:26:58;97952.69;;;25.50;40.92
64080;BME280;51042;49.696;10.808;2023-07-02T11:29:24;97949.72;;;25.01;41.01
64080;BME280;51042;49.696;10.808;2023-07-02T11:31:50;97957.41;;;24.74;42.48
64080;BME280;51042;49.696;10.808;2023-07-02T11:34:16;97948.81;;;25.19;42.30
64080;BME280;51042;49.696;10.808;2023-07-02T11:36:43;97960.72;;;25.67;41.25
64080;BME280;51042;49.696;10.808;2023-07-02T11:39:08;97948.22;;;25.75;41.23
64080;BME280;51042;49.696;10.808;2023-07-02T11:41:37;97952.25;;;24.65;41.82
64080;BME280;51042;49.696;10.808;2023-07-02T11:44:07;97948.22;;;24.73;42.47
64080;BME280;51042;49.696;10.808;2023-07-02T11:46:32;97942.75;;;24.68;42.96
64080;BME280;51042;49.696;10.808;2023-07-02T11:49:02;97946.59;;;24.91;42.89
64080;BME280;51042;49.696;10.808;2023-07-02T11:51:30;97946.06;;;25.27;41.65
64080;BME280;51042;49.696;10.808;2023-07-02T11:53:56;97940.69;;;25.15;40.32
64080;BME280;51042;49.696;10.808;2023-07-02T11:56:21;97949.00;;;25.21;40.26
64080;BME280;51042;49.696;10.808;2023-07-02T11:58:46;97954.75;;;25.15;40.71
64080;BME280;51042;49.696;10.808;2023-07-02T12:01:12;97958.91;;;25.01;41.88
64080;BME280;51042;49.696;10.808;2023-07-02T12:03:37;97946.41;;;24.63;42.05
64080;BME280;51042;49.696;10.808;2023-07-02T12:06:02;97948.34;;;24.94;41.84
64080;BME280;51042;49.696;10.808;2023-07-02T12:08:28;97942.19;;;25.71;40.24
64080;BME280;51042;49.696;10.808;2023-07-02T12:10:54;97933.59;;;26.54;38.94
64080;BME280;51042;49.696;10.808;2023-07-02T12:13:19;97936.19;;;26.52;38.17
64080;BME280;51042;49.696;10.808;2023-07-02T12:15:46;97929.69;;;26.00;38.04
64080;BME280;51042;49.696;10.808;2023-07-02T12:18:12;97932.63;;;25.95;38.85
64080;BME280;51042;49.696;10.808;2023-07-02T12:20:38;97933.97;;;25.73;39.23
64080;BME280;51042;49.696;10.808;2023-07-02T12:23:04;97935.25;;;25.51;39.46
64080;BME280;51042;49.696;10.808;2023-07-02T12:25:30;97929.50;;;25.78;39.26
64080;BME280;51042;49.696;10.808;2023-07-02T12:27:56;97930.97;;;25.99;38.46
64080;BME280;51042;49.696;10.808;2023-07-02T12:30:21;97925.50;;;25.94;39.15
64080;BME280;51042;49.696;10.808;2023-07-02T12:32:47;97927.69;;;26.09;38.08
64080;BME280;51042;49.696;10.808;2023-07-02T12:35:12;97933.75;;;26.20;37.83
64080;BME280;51042;49.696;10.808;2023-07-02T12:37:48;97926.09;;;26.00;37.47
64080;BME280;51042;49.696;10.808;2023-07-02T12:40:16;97925.94;;;26.06;37.57
64080;BME280;51042;49.696;10.808;2023-07-02T12:42:42;97927.63;;;26.29;37.76
64080;BME280;51042;49.696;10.808;2023-07-02T12:45:08;97921.69;;;26.84;36.66